Terminal Aerodrome Forecast
Issued by NWS Topeka, KS

Home | Current Version | Previous Version | Text Only | Print | Product List | Glossary On
Versions: 1 2 3 4 5 6 7 8 9 10 11 12 13 14 15 16 17 18 19 20 21 22
000
FTUS43 KTOP 181100
TAFTOP
TAF
KTOP 181122Z 1812/1912 12003KT P6SM BKN200
     FM181230 13006KT 6SM -RA VCTS SCT025 BKN070CB
     FM182000 16009KT P6SM VCTS BKN050CB
     FM190900 09003KT 4SM -TSRA BKN040CB=

USA.gov is the U.S. government's official web portal to all federal, state and local government web resources and services.